createdAt,value
2017-03-06T00:00:02.322Z,21.49
2017-03-06T00:00:18.796Z,21.43
2017-03-06T00:00:33.457Z,21.43
2017-03-06T00:00:48.030Z,21.46
2017-03-06T00:01:02.637Z,21.48
2017-03-06T00:01:27.504Z,21.37
2017-03-06T00:01:42.905Z,21.37
2017-03-06T00:02:02.431Z,21.4
2017-03-06T00:02:18.032Z,21.43
2017-03-06T00:02:32.609Z,21.36
2017-03-06T00:02:47.296Z,21.36
2017-03-06T00:03:01.975Z,21.31
2017-03-06T00:03:16.592Z,21.25
2017-03-06T00:03:31.222Z,21.33
2017-03-06T00:03:45.917Z,21.33
2017-03-06T00:04:00.524Z,21.31
2017-03-06T00:04:15.182Z,21.23
2017-03-06T00:04:29.864Z,21.34
2017-03-06T00:04:44.436Z,21.28
2017-03-06T00:04:59.041Z,21.34
2017-03-06T00:05:13.670Z,21.28
2017-03-06T00:05:28.283Z,21.23
2017-03-06T00:05:42.797Z,21.27
2017-03-06T00:05:57.401Z,21.23
2017-03-06T00:06:12.029Z,21.27
2017-03-06T00:06:26.659Z,21.33
2017-03-06T00:06:41.251Z,21.27
2017-03-06T00:06:55.860Z,21.28
2017-03-06T00:07:10.440Z,21.25
2017-03-06T00:07:25.057Z,21.33
2017-03-06T00:07:39.650Z,21.21
2017-03-06T00:07:54.335Z,21.28
2017-03-06T00:08:08.973Z,21.21
2017-03-06T00:08:23.552Z,21.3
2017-03-06T00:08:38.105Z,21.27
2017-03-06T00:08:52.767Z,21.18
2017-03-06T00:09:07.323Z,21.23
2017-03-06T00:09:21.918Z,21.23
2017-03-06T00:09:39.611Z,21.21
2017-03-06T00:09:54.374Z,21.28
2017-03-06T00:10:08.982Z,21.34
2017-03-06T00:10:26.331Z,21.3
2017-03-06T00:10:40.913Z,21.33
2017-03-06T00:10:55.512Z,21.23
2017-03-06T00:11:10.345Z,21.45
2017-03-06T00:11:24.967Z,21.36
2017-03-06T00:11:39.521Z,21.37
2017-03-06T00:11:54.194Z,21.37
2017-03-06T00:12:08.835Z,21.41
2017-03-06T00:12:23.501Z,21.43
2017-03-06T00:12:39.256Z,21.51
2017-03-06T00:12:54.083Z,21.49
2017-03-06T00:13:08.658Z,21.45
2017-03-06T00:13:23.484Z,21.53
2017-03-06T00:13:38.759Z,21.51
2017-03-06T00:13:53.330Z,21.55
2017-03-06T00:14:07.936Z,21.59
2017-03-06T00:14:22.598Z,21.59
2017-03-06T00:14:37.168Z,21.62
2017-03-06T00:14:51.788Z,21.59
2017-03-06T00:15:06.418Z,21.61
2017-03-06T00:15:20.996Z,21.67
2017-03-06T00:15:35.640Z,21.61
2017-03-06T00:15:50.315Z,21.62
2017-03-06T00:16:04.959Z,21.62
2017-03-06T00:16:19.527Z,21.64
2017-03-06T00:16:34.099Z,21.73
2017-03-06T00:16:48.920Z,21.7
2017-03-06T00:17:03.477Z,21.73
2017-03-06T00:17:18.143Z,21.76
2017-03-06T00:17:32.719Z,21.76
2017-03-06T00:17:47.249Z,21.71
2017-03-06T00:18:01.888Z,21.74
2017-03-06T00:18:16.451Z,21.77
2017-03-06T00:18:31.114Z,21.74
2017-03-06T00:18:45.678Z,21.73
2017-03-06T00:19:00.201Z,21.7
2017-03-06T00:19:14.874Z,21.76
2017-03-06T00:19:29.460Z,21.7
2017-03-06T00:19:44.075Z,21.66
2017-03-06T00:19:58.623Z,21.64
2017-03-06T00:20:13.283Z,21.62
2017-03-06T00:20:27.900Z,21.62
2017-03-06T00:20:42.722Z,21.56
2017-03-06T00:20:57.286Z,21.41
2017-03-06T00:21:11.945Z,21.43
2017-03-06T00:21:26.489Z,21.48
2017-03-06T00:21:41.083Z,21.36
2017-03-06T00:21:55.740Z,21.36
2017-03-06T00:22:11.742Z,21.36
2017-03-06T00:22:26.322Z,21.3
2017-03-06T00:22:40.892Z,21.37
2017-03-06T00:22:55.534Z,21.38
2017-03-06T00:23:10.326Z,21.34
2017-03-06T00:23:24.977Z,21.4
2017-03-06T00:23:39.580Z,21.33
2017-03-06T00:23:54.271Z,21.3
2017-03-06T00:24:08.908Z,21.36
2017-03-06T00:24:23.541Z,21.27
2017-03-06T00:24:39.238Z,21.23
2017-03-06T00:24:53.910Z,21.31
2017-03-06T00:25:08.710Z,21.28
2017-03-06T00:25:23.430Z,21.3
2017-03-06T00:25:38.090Z,21.18
2017-03-06T00:25:52.682Z,21.19
2017-03-06T00:26:07.259Z,21.18
2017-03-06T00:26:22.069Z,21.21
2017-03-06T00:26:36.758Z,21.18
2017-03-06T00:26:51.441Z,21.22
2017-03-06T00:27:05.995Z,21.25
2017-03-06T00:27:20.621Z,21.18
2017-03-06T00:27:35.252Z,21.22
2017-03-06T00:27:49.955Z,21.28
2017-03-06T00:28:04.641Z,21.18
2017-03-06T00:28:19.278Z,21.21
2017-03-06T00:28:33.851Z,21.22
2017-03-06T00:28:48.469Z,21.23
2017-03-06T00:29:03.064Z,21.22
2017-03-06T00:29:17.707Z,21.3
2017-03-06T00:29:32.267Z,21.25
2017-03-06T00:29:46.828Z,21.23
2017-03-06T00:30:01.426Z,21.25
2017-03-06T00:30:16.051Z,21.22
2017-03-06T00:30:30.646Z,21.21
2017-03-06T00:30:45.368Z,21.19
2017-03-06T00:31:00.028Z,21.21
2017-03-06T00:31:14.632Z,21.18
2017-03-06T00:31:29.207Z,21.21
2017-03-06T00:31:43.788Z,21.19
2017-03-06T00:31:58.453Z,21.3
2017-03-06T00:32:13.050Z,21.22
2017-03-06T00:32:27.751Z,21.21
2017-03-06T00:32:42.370Z,21.25
2017-03-06T00:32:56.943Z,21.18
2017-03-06T00:33:11.610Z,21.16
2017-03-06T00:33:26.208Z,21.15
2017-03-06T00:33:40.807Z,21.19
2017-03-06T00:33:55.373Z,21.19
2017-03-06T00:34:11.140Z,21.13
2017-03-06T00:34:25.799Z,21.22
2017-03-06T00:34:40.395Z,21.11
2017-03-06T00:34:56.174Z,21.15
2017-03-06T00:35:10.750Z,21.22
2017-03-06T00:35:26.091Z,21.08
2017-03-06T00:35:42.903Z,21.12
2017-03-06T00:35:57.482Z,21.21
2017-03-06T00:36:19.032Z,21.16
2017-03-06T00:36:33.683Z,21.21
2017-03-06T00:36:48.263Z,21.15
2017-03-06T00:37:02.908Z,21.22
2017-03-06T00:37:17.741Z,21.18
2017-03-06T00:37:33.007Z,21.16
2017-03-06T00:37:47.675Z,21.22
2017-03-06T00:38:02.293Z,21.18
2017-03-06T00:38:16.941Z,21.28
2017-03-06T00:38:31.580Z,21.16
2017-03-06T00:38:46.270Z,21.18
2017-03-06T00:39:00.898Z,21.25
2017-03-06T00:39:15.497Z,21.21
2017-03-06T00:39:30.088Z,21.16
2017-03-06T00:39:44.705Z,21.21
2017-03-06T00:39:59.323Z,21.28
2017-03-06T00:40:14.126Z,21.27
2017-03-06T00:40:28.726Z,21.37
2017-03-06T00:40:43.334Z,21.31
2017-03-06T00:40:57.983Z,21.31
2017-03-06T00:41:12.547Z,21.31
2017-03-06T00:41:27.149Z,21.34
2017-03-06T00:41:41.738Z,21.36
2017-03-06T00:41:56.381Z,21.38
2017-03-06T00:42:11.011Z,21.45
2017-03-06T00:42:25.603Z,21.41
2017-03-06T00:42:40.170Z,21.43
2017-03-06T00:42:54.711Z,21.46
2017-03-06T00:43:09.968Z,21.41
2017-03-06T00:43:24.573Z,21.53
2017-03-06T00:43:39.229Z,21.55
2017-03-06T00:43:53.821Z,21.55
2017-03-06T00:44:08.477Z,21.52
2017-03-06T00:44:23.082Z,21.56
2017-03-06T00:44:37.698Z,21.58
2017-03-06T00:44:52.342Z,21.61
2017-03-06T00:45:06.957Z,21.61
2017-03-06T00:45:21.563Z,21.64
2017-03-06T00:45:36.132Z,21.64
2017-03-06T00:45:50.703Z,21.67
2017-03-06T00:46:05.336Z,21.66
2017-03-06T00:46:19.981Z,21.71
2017-03-06T00:46:34.626Z,21.74
2017-03-06T00:46:49.186Z,21.67
2017-03-06T00:47:03.793Z,21.73
2017-03-06T00:47:18.393Z,21.62
2017-03-06T00:47:32.986Z,21.7
2017-03-06T00:47:47.565Z,21.68
2017-03-06T00:48:03.009Z,21.76
2017-03-06T00:48:19.973Z,21.76
2017-03-06T00:48:34.600Z,21.73
2017-03-06T00:48:49.300Z,21.73
2017-03-06T00:49:03.888Z,21.76
2017-03-06T00:49:21.561Z,21.76
2017-03-06T00:49:36.198Z,21.73
2017-03-06T00:49:50.739Z,21.7
2017-03-06T00:50:05.388Z,21.7
2017-03-06T00:50:21.478Z,21.76
2017-03-06T00:50:36.110Z,21.77
2017-03-06T00:50:50.734Z,21.82
2017-03-06T00:51:05.334Z,21.83
2017-03-06T00:51:19.949Z,21.83
2017-03-06T00:51:34.618Z,21.9
2017-03-06T00:51:49.202Z,21.82
2017-03-06T00:52:03.781Z,21.9
2017-03-06T00:52:18.375Z,21.9
2017-03-06T00:52:33.026Z,21.82
2017-03-06T00:52:48.893Z,21.83
2017-03-06T00:53:09.854Z,21.85
2017-03-06T00:53:24.477Z,21.93
2017-03-06T00:53:39.012Z,21.89
2017-03-06T00:53:53.623Z,21.93
2017-03-06T00:54:08.221Z,21.89
2017-03-06T00:54:22.876Z,21.82
2017-03-06T00:54:37.498Z,21.83
2017-03-06T00:54:52.089Z,21.78
2017-03-06T00:55:06.645Z,21.74
2017-03-06T00:55:21.405Z,21.73
2017-03-06T00:55:35.989Z,21.74
2017-03-06T00:55:50.628Z,21.71
2017-03-06T00:56:05.277Z,21.71
2017-03-06T00:56:19.871Z,21.76
2017-03-06T00:56:34.496Z,21.74
2017-03-06T00:56:49.676Z,21.8
2017-03-06T00:57:04.308Z,21.73
2017-03-06T00:57:18.894Z,21.74
2017-03-06T00:57:33.508Z,21.74
2017-03-06T00:57:48.080Z,21.68
2017-03-06T00:58:02.756Z,21.7
2017-03-06T00:58:17.382Z,21.66
2017-03-06T00:58:32.009Z,21.66
2017-03-06T00:58:46.605Z,21.67
2017-03-06T00:59:01.230Z,21.73
2017-03-06T00:59:15.817Z,21.68
2017-03-06T00:59:30.424Z,21.67
2017-03-06T00:59:45.020Z,21.73
2017-03-06T00:59:59.747Z,21.78
2017-03-06T01:00:14.398Z,21.73
2017-03-06T01:00:28.984Z,21.71
2017-03-06T01:00:43.709Z,21.73
2017-03-06T01:00:58.334Z,21.71
2017-03-06T01:01:12.934Z,21.74
2017-03-06T01:01:28.783Z,21.9
2017-03-06T01:01:43.426Z,21.86
2017-03-06T01:01:58.023Z,21.92
2017-03-06T01:02:12.680Z,21.86
2017-03-06T01:02:33.620Z,21.89
2017-03-06T01:02:48.227Z,21.86
2017-03-06T01:03:02.845Z,21.85
2017-03-06T01:03:17.470Z,21.82
2017-03-06T01:03:32.088Z,21.83
2017-03-06T01:03:46.729Z,21.82
2017-03-06T01:04:01.384Z,21.8
2017-03-06T01:04:15.960Z,21.82
2017-03-06T01:04:30.657Z,21.85
2017-03-06T01:04:45.270Z,21.9
2017-03-06T01:04:59.982Z,21.77
2017-03-06T01:05:14.569Z,21.71
2017-03-06T01:05:29.397Z,21.82
2017-03-06T01:05:43.932Z,21.8
2017-03-06T01:05:58.539Z,21.78
2017-03-06T01:06:13.179Z,21.74
2017-03-06T01:06:27.818Z,21.71
2017-03-06T01:06:42.419Z,21.77
2017-03-06T01:06:56.973Z,21.8
2017-03-06T01:07:11.533Z,21.73
2017-03-06T01:07:26.143Z,21.76
2017-03-06T01:07:40.807Z,21.74
2017-03-06T01:07:55.435Z,21.76
2017-03-06T01:08:10.033Z,21.74
2017-03-06T01:08:24.615Z,21.73
2017-03-06T01:08:39.251Z,21.73
2017-03-06T01:08:53.869Z,21.74
2017-03-06T01:09:08.438Z,21.73
2017-03-06T01:09:22.994Z,21.7
2017-03-06T01:09:37.552Z,21.7
2017-03-06T01:09:52.153Z,21.68
2017-03-06T01:10:06.775Z,21.7
2017-03-06T01:10:21.396Z,21.77
2017-03-06T01:10:36.253Z,21.76
2017-03-06T01:10:50.862Z,21.74
2017-03-06T01:11:05.487Z,21.82
2017-03-06T01:11:20.113Z,21.78
2017-03-06T01:11:34.755Z,21.82
2017-03-06T01:11:49.329Z,21.77
2017-03-06T01:12:03.949Z,21.8
2017-03-06T01:12:18.547Z,21.78
2017-03-06T01:12:33.168Z,21.71
2017-03-06T01:12:47.784Z,21.74
2017-03-06T01:13:02.403Z,21.77
2017-03-06T01:13:17.025Z,21.73
2017-03-06T01:13:31.622Z,21.73
2017-03-06T01:13:46.289Z,21.76
2017-03-06T01:14:00.900Z,21.74
2017-03-06T01:14:15.502Z,21.7
2017-03-06T01:14:30.114Z,21.67
2017-03-06T01:14:44.734Z,21.55
2017-03-06T01:14:59.337Z,21.52
2017-03-06T01:15:13.951Z,21.56
2017-03-06T01:15:28.591Z,21.61
2017-03-06T01:15:43.219Z,21.66
2017-03-06T01:15:57.830Z,21.62
2017-03-06T01:16:12.395Z,21.56
2017-03-06T01:16:26.974Z,21.61
2017-03-06T01:16:41.502Z,21.55
2017-03-06T01:16:56.048Z,21.58
2017-03-06T01:17:10.845Z,21.58
2017-03-06T01:17:25.466Z,21.58
2017-03-06T01:17:40.088Z,21.51
2017-03-06T01:17:54.690Z,21.49
2017-03-06T01:18:09.186Z,21.53
2017-03-06T01:18:23.735Z,21.43
2017-03-06T01:18:38.305Z,21.43
2017-03-06T01:18:52.841Z,21.43
2017-03-06T01:19:07.519Z,21.41
2017-03-06T01:19:22.176Z,21.41
2017-03-06T01:19:36.797Z,21.51
2017-03-06T01:19:51.370Z,21.53
2017-03-06T01:20:05.969Z,21.48
2017-03-06T01:20:20.597Z,21.48
2017-03-06T01:20:35.247Z,21.41
2017-03-06T01:20:49.887Z,21.48
2017-03-06T01:21:04.566Z,21.55
2017-03-06T01:21:19.207Z,21.48
2017-03-06T01:21:33.897Z,21.48
2017-03-06T01:21:48.583Z,21.46
2017-03-06T01:22:03.180Z,21.48
2017-03-06T01:22:17.804Z,21.46
2017-03-06T01:22:32.388Z,21.43
2017-03-06T01:22:46.951Z,21.51
2017-03-06T01:23:03.681Z,21.46
2017-03-06T01:23:18.331Z,21.49
2017-03-06T01:23:32.969Z,21.46
2017-03-06T01:23:47.541Z,21.41
2017-03-06T01:24:02.171Z,21.52
2017-03-06T01:24:16.776Z,21.41
2017-03-06T01:24:31.429Z,21.56
2017-03-06T01:24:46.040Z,21.49
2017-03-06T01:25:00.644Z,21.58
2017-03-06T01:25:15.289Z,21.53
2017-03-06T01:25:29.872Z,21.61
2017-03-06T01:25:44.708Z,21.62
2017-03-06T01:25:59.323Z,21.66
2017-03-06T01:26:13.923Z,21.55
2017-03-06T01:26:28.568Z,21.62
2017-03-06T01:26:43.161Z,21.62
2017-03-06T01:26:57.800Z,21.66
2017-03-06T01:27:12.425Z,21.53
2017-03-06T01:27:27.000Z,21.64
2017-03-06T01:27:41.605Z,21.59
2017-03-06T01:27:56.175Z,21.67
2017-03-06T01:28:10.745Z,21.61
2017-03-06T01:28:25.373Z,21.68
2017-03-06T01:28:39.924Z,21.64
2017-03-06T01:28:54.593Z,21.52
2017-03-06T01:29:09.211Z,21.56
2017-03-06T01:29:23.820Z,21.61
2017-03-06T01:29:38.471Z,21.61
2017-03-06T01:29:53.096Z,21.59
2017-03-06T01:30:07.692Z,21.56
2017-03-06T01:30:22.258Z,21.61
2017-03-06T01:30:36.811Z,21.53
2017-03-06T01:30:51.401Z,21.61
2017-03-06T01:31:06.032Z,21.56
2017-03-06T01:31:20.675Z,21.56
2017-03-06T01:31:35.335Z,21.49
2017-03-06T01:31:49.929Z,21.52
2017-03-06T01:32:04.481Z,21.56
2017-03-06T01:32:19.086Z,21.49
2017-03-06T01:32:33.722Z,21.56
2017-03-06T01:32:48.305Z,21.52
2017-03-06T01:33:02.926Z,21.52
2017-03-06T01:33:20.577Z,21.52
2017-03-06T01:33:36.638Z,21.48
2017-03-06T01:33:56.285Z,21.48
2017-03-06T01:34:10.877Z,21.53
2017-03-06T01:34:25.480Z,21.48
2017-03-06T01:34:40.096Z,21.48
2017-03-06T01:35:07.141Z,21.48
2017-03-06T01:35:21.790Z,21.48
2017-03-06T01:35:36.416Z,21.52
2017-03-06T01:35:51.001Z,21.52
2017-03-06T01:36:16.951Z,21.52
2017-03-06T01:36:31.586Z,21.61
2017-03-06T01:36:46.245Z,21.59
2017-03-06T01:37:01.971Z,21.62
2017-03-06T01:37:16.526Z,21.66
2017-03-06T01:37:31.200Z,21.59
2017-03-06T01:37:48.859Z,21.66
2017-03-06T01:38:03.472Z,21.64
2017-03-06T01:38:18.241Z,21.67
2017-03-06T01:38:32.850Z,21.68
2017-03-06T01:38:47.629Z,21.73
2017-03-06T01:39:02.238Z,21.67
2017-03-06T01:39:16.868Z,21.68
2017-03-06T01:39:31.480Z,21.67
2017-03-06T01:39:46.096Z,21.7
2017-03-06T01:40:10.976Z,21.66
2017-03-06T01:40:25.611Z,21.59
2017-03-06T01:40:50.738Z,21.55
2017-03-06T01:41:10.429Z,21.58
2017-03-06T01:41:55.969Z,21.62
2017-03-06T01:42:40.781Z,21.67
2017-03-06T01:42:55.377Z,21.68
2017-03-06T01:43:10.047Z,21.66
2017-03-06T01:43:24.668Z,21.74
2017-03-06T01:43:39.290Z,21.7
2017-03-06T01:43:53.945Z,21.73
2017-03-06T01:44:08.516Z,21.77
2017-03-06T01:44:26.236Z,21.74
2017-03-06T01:44:40.894Z,21.73
2017-03-06T01:44:55.536Z,21.86
2017-03-06T01:45:10.173Z,21.78
2017-03-06T01:45:24.813Z,21.85
2017-03-06T01:45:39.451Z,21.76
2017-03-06T01:45:54.044Z,21.8
2017-03-06T01:46:14.938Z,21.76
2017-03-06T01:46:29.587Z,21.82
2017-03-06T01:46:44.238Z,21.85
2017-03-06T01:47:33.008Z,21.78
2017-03-06T01:47:47.622Z,21.8
2017-03-06T01:48:05.346Z,21.83
2017-03-06T01:48:20.018Z,21.83
2017-03-06T01:48:35.455Z,21.74
2017-03-06T01:48:50.067Z,21.73
2017-03-06T01:49:04.634Z,21.78
2017-03-06T01:49:19.217Z,21.68
2017-03-06T01:49:33.892Z,21.74
2017-03-06T01:49:48.536Z,21.73
2017-03-06T01:50:03.165Z,21.68
2017-03-06T01:50:17.768Z,21.67
2017-03-06T01:50:32.366Z,21.67
2017-03-06T01:50:46.972Z,21.64
2017-03-06T01:51:01.631Z,21.64
2017-03-06T01:51:16.272Z,21.64
2017-03-06T01:51:30.878Z,21.68
2017-03-06T01:51:45.483Z,21.59
2017-03-06T01:52:00.062Z,21.59
2017-03-06T01:52:14.704Z,21.56
2017-03-06T01:52:29.337Z,21.59
2017-03-06T01:52:43.948Z,21.55
2017-03-06T01:52:58.780Z,21.53
2017-03-06T01:53:13.403Z,21.55
2017-03-06T01:53:27.950Z,21.41
2017-03-06T01:53:42.573Z,21.45
2017-03-06T01:53:57.144Z,21.46
2017-03-06T01:54:11.733Z,21.48
2017-03-06T01:54:26.346Z,21.37
2017-03-06T01:54:40.932Z,21.41
2017-03-06T01:54:55.535Z,21.38
2017-03-06T01:55:10.177Z,21.34
2017-03-06T01:55:24.779Z,21.34
2017-03-06T01:55:39.302Z,21.33
2017-03-06T01:55:53.912Z,21.37
2017-03-06T01:56:08.929Z,21.36
2017-03-06T01:56:23.572Z,21.3
2017-03-06T01:56:38.097Z,21.25
2017-03-06T01:56:52.685Z,21.21
2017-03-06T01:57:08.714Z,21.23
2017-03-06T01:57:23.340Z,21.27
2017-03-06T01:57:37.932Z,21.3
2017-03-06T01:57:52.563Z,21.23
2017-03-06T01:58:07.189Z,21.25
2017-03-06T01:58:21.822Z,21.25
2017-03-06T01:58:36.403Z,21.21
2017-03-06T01:58:51.017Z,21.25
2017-03-06T01:59:05.649Z,21.25
2017-03-06T01:59:20.282Z,21.27
2017-03-06T01:59:34.855Z,21.19
2017-03-06T01:59:49.472Z,21.28
2017-03-06T02:00:04.095Z,21.27
2017-03-06T02:00:18.678Z,21.28
2017-03-06T02:00:33.503Z,21.27
2017-03-06T02:00:48.122Z,21.19
2017-03-06T02:01:02.770Z,21.3
2017-03-06T02:01:17.366Z,21.18
2017-03-06T02:01:32.035Z,21.28
2017-03-06T02:01:46.665Z,21.23
2017-03-06T02:02:01.253Z,21.21
2017-03-06T02:02:15.871Z,21.23
2017-03-06T02:02:30.533Z,21.28
2017-03-06T02:02:45.174Z,21.28
2017-03-06T02:02:59.786Z,21.28
2017-03-06T02:03:14.375Z,21.28
2017-03-06T02:03:28.949Z,21.27
2017-03-06T02:03:43.592Z,21.34
2017-03-06T02:03:58.206Z,21.25
2017-03-06T02:04:12.827Z,21.33
2017-03-06T02:04:27.404Z,21.21
2017-03-06T02:04:42.010Z,21.23
2017-03-06T02:04:56.611Z,21.3
2017-03-06T02:05:11.198Z,21.31
2017-03-06T02:05:25.821Z,21.3
2017-03-06T02:05:40.442Z,21.28
2017-03-06T02:05:54.971Z,21.21
2017-03-06T02:06:09.546Z,21.22
2017-03-06T02:06:24.183Z,21.18
2017-03-06T02:06:38.824Z,21.19
2017-03-06T02:06:53.403Z,21.22
2017-03-06T02:07:08.044Z,21.31
2017-03-06T02:07:22.709Z,21.18
2017-03-06T02:07:37.315Z,21.21
2017-03-06T02:07:52.133Z,21.19
2017-03-06T02:08:06.772Z,21.18
2017-03-06T02:08:21.334Z,21.3
2017-03-06T02:08:35.920Z,21.27
2017-03-06T02:08:50.577Z,21.27
2017-03-06T02:09:05.162Z,21.25
2017-03-06T02:09:19.785Z,21.19
2017-03-06T02:09:34.334Z,21.22
2017-03-06T02:09:48.929Z,21.19
2017-03-06T02:10:03.502Z,21.22
2017-03-06T02:10:18.112Z,21.25
2017-03-06T02:10:32.794Z,21.25
2017-03-06T02:10:47.315Z,21.12
2017-03-06T02:11:01.894Z,21.21
2017-03-06T02:11:17.020Z,21.18
2017-03-06T02:11:31.633Z,21.18
2017-03-06T02:11:46.251Z,21.18
2017-03-06T02:12:00.843Z,21.21
2017-03-06T02:12:15.419Z,21.19
2017-03-06T02:12:30.059Z,21.22
2017-03-06T02:12:44.686Z,21.25
2017-03-06T02:12:59.360Z,21.13
2017-03-06T02:13:13.964Z,21.13
2017-03-06T02:13:28.578Z,21.19
2017-03-06T02:13:43.195Z,21.21
2017-03-06T02:13:57.849Z,21.16
2017-03-06T02:14:12.526Z,21.25
2017-03-06T02:14:27.158Z,21.18
2017-03-06T02:14:41.798Z,21.27
2017-03-06T02:14:56.469Z,21.28
2017-03-06T02:15:11.083Z,21.27
2017-03-06T02:15:25.616Z,21.21
2017-03-06T02:15:40.172Z,21.28
2017-03-06T02:15:54.771Z,21.23
2017-03-06T02:16:09.424Z,21.23
2017-03-06T02:16:24.077Z,21.27
2017-03-06T02:16:38.726Z,21.28
2017-03-06T02:16:53.358Z,21.21
2017-03-06T02:17:07.919Z,21.25
2017-03-06T02:17:22.798Z,21.27
2017-03-06T02:17:37.381Z,21.28
2017-03-06T02:17:52.013Z,21.27
2017-03-06T02:18:06.667Z,21.25
2017-03-06T02:18:21.333Z,21.25
2017-03-06T02:18:35.897Z,21.27
2017-03-06T02:18:50.439Z,21.27
2017-03-06T02:19:05.024Z,21.28
2017-03-06T02:19:19.638Z,21.28
2017-03-06T02:19:34.249Z,21.3
2017-03-06T02:19:48.859Z,21.27
2017-03-06T02:20:03.445Z,21.27
2017-03-06T02:20:18.068Z,21.22
2017-03-06T02:20:32.698Z,21.23
2017-03-06T02:20:47.332Z,21.28
2017-03-06T02:21:01.966Z,21.23
2017-03-06T02:21:16.623Z,21.28
2017-03-06T02:21:31.256Z,21.23
2017-03-06T02:21:45.857Z,21.28
2017-03-06T02:22:00.456Z,21.3
2017-03-06T02:22:15.105Z,21.23
2017-03-06T02:22:29.688Z,21.36
2017-03-06T02:22:44.229Z,21.36
2017-03-06T02:22:58.846Z,21.27
2017-03-06T02:23:13.492Z,21.4
2017-03-06T02:23:28.195Z,21.43
2017-03-06T02:23:42.795Z,21.33
2017-03-06T02:23:57.386Z,21.51
2017-03-06T02:24:11.981Z,21.52
2017-03-06T02:24:26.525Z,21.45
2017-03-06T02:24:41.159Z,21.55
2017-03-06T02:24:55.767Z,21.58
2017-03-06T02:25:10.355Z,21.52
2017-03-06T02:25:25.035Z,21.52
2017-03-06T02:25:39.671Z,21.62
2017-03-06T02:25:54.378Z,21.61
2017-03-06T02:26:09.047Z,21.62
2017-03-06T02:26:23.883Z,21.64
2017-03-06T02:26:38.472Z,21.67
2017-03-06T02:26:53.083Z,21.64
2017-03-06T02:27:07.672Z,21.64
2017-03-06T02:27:22.259Z,21.62
2017-03-06T02:27:36.863Z,21.66
2017-03-06T02:27:51.523Z,21.61
2017-03-06T02:28:06.125Z,21.64
2017-03-06T02:28:20.753Z,21.56
2017-03-06T02:28:35.378Z,21.52
2017-03-06T02:28:49.968Z,21.56
2017-03-06T02:29:04.541Z,21.48
2017-03-06T02:29:19.199Z,21.46
2017-03-06T02:29:33.792Z,21.43
2017-03-06T02:29:48.384Z,21.43
2017-03-06T02:30:03.001Z,21.37
2017-03-06T02:30:17.644Z,21.33
2017-03-06T02:30:32.501Z,21.43
2017-03-06T02:30:47.166Z,21.33
2017-03-06T02:31:01.743Z,21.37
2017-03-06T02:31:16.347Z,21.43
2017-03-06T02:31:30.949Z,21.37
2017-03-06T02:31:45.487Z,21.38
2017-03-06T02:32:00.099Z,21.4
2017-03-06T02:32:14.713Z,21.43
2017-03-06T02:32:29.342Z,21.36
2017-03-06T02:32:44.000Z,21.33
2017-03-06T02:32:58.609Z,21.34
2017-03-06T02:33:13.188Z,21.34
2017-03-06T02:33:27.750Z,21.38
2017-03-06T02:33:42.331Z,21.33
2017-03-06T02:33:56.957Z,21.37
2017-03-06T02:34:11.707Z,21.41
2017-03-06T02:34:27.733Z,21.37
2017-03-06T02:34:42.369Z,21.36
2017-03-06T02:34:57.023Z,21.36
2017-03-06T02:35:11.630Z,21.34
2017-03-06T02:35:26.170Z,21.33
2017-03-06T02:35:40.812Z,21.31
2017-03-06T02:35:55.471Z,21.38
2017-03-06T02:36:10.095Z,21.38
2017-03-06T02:36:24.667Z,21.38
2017-03-06T02:36:39.240Z,21.37
2017-03-06T02:36:53.866Z,21.33
2017-03-06T02:37:08.445Z,21.36
2017-03-06T02:37:23.048Z,21.33
2017-03-06T02:37:37.685Z,21.37
2017-03-06T02:37:52.297Z,21.4
2017-03-06T02:38:06.876Z,21.4
2017-03-06T02:38:21.457Z,21.43
2017-03-06T02:38:36.101Z,21.38
2017-03-06T02:38:50.704Z,21.49
2017-03-06T02:39:05.322Z,21.46
2017-03-06T02:39:19.877Z,21.37
2017-03-06T02:39:34.526Z,21.45
2017-03-06T02:39:49.097Z,21.51
2017-03-06T02:40:03.704Z,21.45
2017-03-06T02:40:18.275Z,21.53
2017-03-06T02:40:32.793Z,21.49
2017-03-06T02:40:47.406Z,21.49
2017-03-06T02:41:02.021Z,21.53
2017-03-06T02:41:16.693Z,21.58
2017-03-06T02:41:31.647Z,21.56
2017-03-06T02:41:46.278Z,21.55
2017-03-06T02:42:00.873Z,21.56
2017-03-06T02:42:15.459Z,21.51
2017-03-06T02:42:30.033Z,21.52
2017-03-06T02:42:44.624Z,21.52
2017-03-06T02:42:59.212Z,21.55
2017-03-06T02:43:13.851Z,21.53
2017-03-06T02:43:28.444Z,21.52
2017-03-06T02:43:43.040Z,21.49
2017-03-06T02:43:57.690Z,21.52
2017-03-06T02:44:12.346Z,21.49
2017-03-06T02:44:26.997Z,21.49
2017-03-06T02:44:41.611Z,21.52
2017-03-06T02:44:56.235Z,21.56
2017-03-06T02:45:10.837Z,21.58
2017-03-06T02:45:25.430Z,21.59
2017-03-06T02:45:40.084Z,21.61
2017-03-06T02:45:54.686Z,21.61
2017-03-06T02:46:09.296Z,21.66
2017-03-06T02:46:23.956Z,21.62
2017-03-06T02:46:38.684Z,21.62
2017-03-06T02:46:53.264Z,21.64
2017-03-06T02:47:07.780Z,21.68
2017-03-06T02:47:22.381Z,21.67
2017-03-06T02:47:37.029Z,21.71
2017-03-06T02:47:51.594Z,21.74
2017-03-06T02:48:06.189Z,21.77
2017-03-06T02:48:21.344Z,21.76
2017-03-06T02:48:35.943Z,21.67
2017-03-06T02:48:50.591Z,21.71
2017-03-06T02:49:05.246Z,21.68
2017-03-06T02:49:19.869Z,21.71
2017-03-06T02:49:34.425Z,21.66
2017-03-06T02:49:48.972Z,21.73
2017-03-06T02:50:03.569Z,21.67
2017-03-06T02:50:18.182Z,21.62
2017-03-06T02:50:32.757Z,21.64
2017-03-06T02:50:47.376Z,21.62
2017-03-06T02:51:01.972Z,21.62
2017-03-06T02:51:16.598Z,21.56
2017-03-06T02:51:31.294Z,21.46
2017-03-06T02:51:45.938Z,21.51
2017-03-06T02:52:00.563Z,21.52
2017-03-06T02:52:15.194Z,21.45
2017-03-06T02:52:29.792Z,21.51
2017-03-06T02:52:44.435Z,21.49
2017-03-06T02:52:59.067Z,21.53
2017-03-06T02:53:13.671Z,21.41
2017-03-06T02:53:28.263Z,21.48
2017-03-06T02:53:42.854Z,21.41
2017-03-06T02:53:57.486Z,21.45
2017-03-06T02:54:12.054Z,21.46
2017-03-06T02:54:26.683Z,21.48
2017-03-06T02:54:41.274Z,21.48
2017-03-06T02:54:55.897Z,21.43
2017-03-06T02:55:10.490Z,21.4
2017-03-06T02:55:25.095Z,21.41
2017-03-06T02:55:39.738Z,21.45
2017-03-06T02:55:54.305Z,21.46
2017-03-06T02:56:08.953Z,21.48
2017-03-06T02:56:23.550Z,21.45
2017-03-06T02:56:38.335Z,21.46
2017-03-06T02:56:52.895Z,21.45
2017-03-06T02:57:07.480Z,21.45
2017-03-06T02:57:22.067Z,21.52
2017-03-06T02:57:36.700Z,21.53
2017-03-06T02:57:51.372Z,21.53
2017-03-06T02:58:05.960Z,21.49
2017-03-06T02:58:20.588Z,21.51
2017-03-06T02:58:35.168Z,21.53
2017-03-06T02:58:49.787Z,21.55
2017-03-06T02:59:04.371Z,21.55
2017-03-06T02:59:18.997Z,21.53
2017-03-06T02:59:33.583Z,21.56
2017-03-06T02:59:48.168Z,21.61
2017-03-06T03:00:02.779Z,21.61
2017-03-06T03:00:17.382Z,21.61
2017-03-06T03:00:31.999Z,21.58
2017-03-06T03:00:46.640Z,21.56
2017-03-06T03:01:01.293Z,21.68
2017-03-06T03:01:15.903Z,21.7
2017-03-06T03:01:30.563Z,21.7
2017-03-06T03:01:45.156Z,21.71
2017-03-06T03:01:59.729Z,21.7
2017-03-06T03:02:14.276Z,21.73
2017-03-06T03:02:28.896Z,21.77
2017-03-06T03:02:43.487Z,21.76
2017-03-06T03:02:58.061Z,21.71
2017-03-06T03:03:12.690Z,21.7
2017-03-06T03:03:27.347Z,21.8
2017-03-06T03:03:42.008Z,21.74
2017-03-06T03:03:56.668Z,21.82
2017-03-06T03:04:11.234Z,21.85
2017-03-06T03:04:25.833Z,21.9
2017-03-06T03:04:40.474Z,21.9
2017-03-06T03:04:55.148Z,21.86
2017-03-06T03:05:09.779Z,21.96
2017-03-06T03:05:24.369Z,21.94
2017-03-06T03:05:39.022Z,21.9
2017-03-06T03:05:53.696Z,21.86
2017-03-06T03:06:08.307Z,21.86
2017-03-06T03:06:22.971Z,21.92
2017-03-06T03:06:37.599Z,21.86
2017-03-06T03:06:52.261Z,21.85
2017-03-06T03:07:06.898Z,21.83
2017-03-06T03:07:21.532Z,21.96
2017-03-06T03:07:36.073Z,21.96
2017-03-06T03:07:50.643Z,21.86
2017-03-06T03:08:06.533Z,21.92
2017-03-06T03:08:21.129Z,21.96
2017-03-06T03:08:35.802Z,21.94
2017-03-06T03:08:50.420Z,21.97
2017-03-06T03:09:05.000Z,21.97
2017-03-06T03:09:19.616Z,21.93
2017-03-06T03:09:34.233Z,21.97
2017-03-06T03:09:48.801Z,21.96
2017-03-06T03:10:03.359Z,22
2017-03-06T03:10:17.938Z,21.96
2017-03-06T03:10:32.495Z,21.93
2017-03-06T03:10:47.145Z,21.96
2017-03-06T03:11:01.781Z,21.92
2017-03-06T03:11:16.374Z,21.99
2017-03-06T03:11:30.974Z,21.93
2017-03-06T03:11:45.859Z,21.89
2017-03-06T03:12:00.466Z,21.86
2017-03-06T03:12:15.050Z,21.89
2017-03-06T03:12:29.685Z,21.89
2017-03-06T03:12:44.339Z,21.9